Terminal Aerodrome Forecast
Issued by NWS Pocatello, ID

Home | Current Version | Previous Version | Text Only | Print | Product List | Glossary On
Versions: 1 2 3 4 5 6 7 8 9 10 11 12 13 14 15 16 17
978
FTUS45 KPIH 222139 AAC
TAFBYI
TAF AMD
KBYI 222139Z 2222/2318 17013G23KT 6SM -RASN BR BKN025 OVC035
      TEMPO 2222/2302 2SM -SN BR SCT005 OVC015
     FM230200 21009KT 6SM -RASN BR BKN015 OVC030
     FM230800 21005KT P6SM VCSH SCT025 BKN050
     FM231300 18010KT 3SM -SN BR SCT005 OVC015=

USA.gov is the U.S. government's official web portal to all federal, state and local government web resources and services.